<?xml version="1.0" encoding="UTF-8" standalone="no" ?>
<gpx xmlns="http://www.topografix.com/GPX/1/1" xmlns:xsi="http://www.w3.org/2001/XMLSchema-instance" xsi:schemaLocation="http://www.topografix.com/GPX/1/1 http://www.topografix.com/GPX/1/1/gpx.xsd" version="1.1" creator="VisuGPX - https://www.visugpx.com">
  <metadata>
    <name>Themericourt</name>
  </metadata>
  <trk>
    <name><![CDATA[Théméricourt 31 km-14280671]]></name>
    <trkseg>
      <trkpt lat="49.08677" lon="1.8891">
        <ele>85.2</ele>
        <time>2024-02-17T18:12:05Z</time>
      </trkpt>
      <trkpt lat="49.08717" lon="1.8874">
        <ele>86.5</ele>
        <time>2024-02-17T18:14:43Z</time>
      </trkpt>
      <trkpt lat="49.08741" lon="1.88621">
        <ele>87.3</ele>
        <time>2024-02-17T18:16:32Z</time>
      </trkpt>
      <trkpt lat="49.08741" lon="1.8852">
        <ele>88.3</ele>
        <time>2024-02-17T18:18:00Z</time>
      </trkpt>
      <trkpt lat="49.08746" lon="1.8839">
        <ele>89.1</ele>
        <time>2024-02-17T18:19:54Z</time>
      </trkpt>
      <trkpt lat="49.08713" lon="1.88119">
        <ele>89.9</ele>
        <time>2024-02-17T18:23:55Z</time>
      </trkpt>
      <trkpt lat="49.08488" lon="1.87758">
        <ele>92.6</ele>
        <time>2024-02-17T18:31:10Z</time>
      </trkpt>
      <trkpt lat="49.08455" lon="1.87693">
        <ele>92</ele>
        <time>2024-02-17T18:32:22Z</time>
      </trkpt>
      <trkpt lat="49.08411" lon="1.87592">
        <ele>91.5</ele>
        <time>2024-02-17T18:34:08Z</time>
      </trkpt>
      <trkpt lat="49.08456" lon="1.87546">
        <ele>90.9</ele>
        <time>2024-02-17T18:35:20Z</time>
      </trkpt>
      <trkpt lat="49.08483" lon="1.87499">
        <ele>89.6</ele>
        <time>2024-02-17T18:36:15Z</time>
      </trkpt>
      <trkpt lat="49.08536" lon="1.87297">
        <ele>89</ele>
        <time>2024-02-17T18:39:25Z</time>
      </trkpt>
      <trkpt lat="49.08536" lon="1.87229">
        <ele>90</ele>
        <time>2024-02-17T18:40:25Z</time>
      </trkpt>
      <trkpt lat="49.08495" lon="1.87132">
        <ele>92</ele>
        <time>2024-02-17T18:42:06Z</time>
      </trkpt>
      <trkpt lat="49.08407" lon="1.87043">
        <ele>94.2</ele>
        <time>2024-02-17T18:44:26Z</time>
      </trkpt>
      <trkpt lat="49.08367" lon="1.86996">
        <ele>96.5</ele>
        <time>2024-02-17T18:45:34Z</time>
      </trkpt>
      <trkpt lat="49.08278" lon="1.86866">
        <ele>103</ele>
        <time>2024-02-17T18:48:18Z</time>
      </trkpt>
      <trkpt lat="49.08244" lon="1.86828">
        <ele>103.4</ele>
        <time>2024-02-17T18:49:14Z</time>
      </trkpt>
      <trkpt lat="49.08194" lon="1.86825">
        <ele>107</ele>
        <time>2024-02-17T18:50:21Z</time>
      </trkpt>
      <trkpt lat="49.08117" lon="1.86744">
        <ele>106.6</ele>
        <time>2024-02-17T18:52:26Z</time>
      </trkpt>
      <trkpt lat="49.08063" lon="1.86711">
        <ele>107</ele>
        <time>2024-02-17T18:53:44Z</time>
      </trkpt>
      <trkpt lat="49.08012" lon="1.8666">
        <ele>107.2</ele>
        <time>2024-02-17T18:55:05Z</time>
      </trkpt>
      <trkpt lat="49.07942" lon="1.86482">
        <ele>104.2</ele>
        <time>2024-02-17T18:58:06Z</time>
      </trkpt>
      <trkpt lat="49.07926" lon="1.86379">
        <ele>104.7</ele>
        <time>2024-02-17T18:59:39Z</time>
      </trkpt>
      <trkpt lat="49.07905" lon="1.86361">
        <ele>105.8</ele>
        <time>2024-02-17T19:00:11Z</time>
      </trkpt>
      <trkpt lat="49.07843" lon="1.86343">
        <ele>112</ele>
        <time>2024-02-17T19:01:35Z</time>
      </trkpt>
      <trkpt lat="49.07787" lon="1.86338">
        <ele>116.3</ele>
        <time>2024-02-17T19:02:50Z</time>
      </trkpt>
      <trkpt lat="49.07765" lon="1.8632">
        <ele>118.6</ele>
        <time>2024-02-17T19:03:23Z</time>
      </trkpt>
      <trkpt lat="49.07699" lon="1.86193">
        <ele>119.8</ele>
        <time>2024-02-17T19:05:45Z</time>
      </trkpt>
      <trkpt lat="49.07597" lon="1.86046">
        <ele>124.8</ele>
        <time>2024-02-17T19:08:52Z</time>
      </trkpt>
      <trkpt lat="49.0754" lon="1.8607">
        <ele>125.8</ele>
        <time>2024-02-17T19:10:11Z</time>
      </trkpt>
      <trkpt lat="49.07515" lon="1.86049">
        <ele>125.8</ele>
        <time>2024-02-17T19:10:49Z</time>
      </trkpt>
      <trkpt lat="49.07498" lon="1.86054">
        <ele>126</ele>
        <time>2024-02-17T19:11:12Z</time>
      </trkpt>
      <trkpt lat="49.07435" lon="1.86153">
        <ele>128</ele>
        <time>2024-02-17T19:13:13Z</time>
      </trkpt>
      <trkpt lat="49.07377" lon="1.8622">
        <ele>128</ele>
        <time>2024-02-17T19:14:50Z</time>
      </trkpt>
      <trkpt lat="49.07127" lon="1.8633">
        <ele>151.2</ele>
        <time>2024-02-17T19:20:37Z</time>
      </trkpt>
      <trkpt lat="49.07028" lon="1.86491">
        <ele>148.6</ele>
        <time>2024-02-17T19:23:50Z</time>
      </trkpt>
      <trkpt lat="49.06954" lon="1.86627">
        <ele>149.1</ele>
        <time>2024-02-17T19:26:25Z</time>
      </trkpt>
      <trkpt lat="49.06953" lon="1.86648">
        <ele>148.4</ele>
        <time>2024-02-17T19:26:43Z</time>
      </trkpt>
      <trkpt lat="49.06915" lon="1.86705">
        <ele>148</ele>
        <time>2024-02-17T19:27:54Z</time>
      </trkpt>
      <trkpt lat="49.06899" lon="1.86726">
        <ele>147.1</ele>
        <time>2024-02-17T19:28:23Z</time>
      </trkpt>
      <trkpt lat="49.06889" lon="1.86735">
        <ele>146.1</ele>
        <time>2024-02-17T19:28:38Z</time>
      </trkpt>
      <trkpt lat="49.06839" lon="1.86676">
        <ele>146</ele>
        <time>2024-02-17T19:30:02Z</time>
      </trkpt>
      <trkpt lat="49.06811" lon="1.86654">
        <ele>145.7</ele>
        <time>2024-02-17T19:30:44Z</time>
      </trkpt>
      <trkpt lat="49.06803" lon="1.86644">
        <ele>145.6</ele>
        <time>2024-02-17T19:30:58Z</time>
      </trkpt>
      <trkpt lat="49.06757" lon="1.86614">
        <ele>141.7</ele>
        <time>2024-02-17T19:32:05Z</time>
      </trkpt>
      <trkpt lat="49.06703" lon="1.86599">
        <ele>138.4</ele>
        <time>2024-02-17T19:33:18Z</time>
      </trkpt>
      <trkpt lat="49.0669" lon="1.86604">
        <ele>136.8</ele>
        <time>2024-02-17T19:33:36Z</time>
      </trkpt>
      <trkpt lat="49.0662" lon="1.86676">
        <ele>127</ele>
        <time>2024-02-17T19:35:29Z</time>
      </trkpt>
      <trkpt lat="49.06585" lon="1.86717">
        <ele>121.4</ele>
        <time>2024-02-17T19:36:28Z</time>
      </trkpt>
      <trkpt lat="49.06563" lon="1.86716">
        <ele>119.6</ele>
        <time>2024-02-17T19:36:57Z</time>
      </trkpt>
      <trkpt lat="49.06533" lon="1.867">
        <ele>118.2</ele>
        <time>2024-02-17T19:37:39Z</time>
      </trkpt>
      <trkpt lat="49.06528" lon="1.86644">
        <ele>119.8</ele>
        <time>2024-02-17T19:38:29Z</time>
      </trkpt>
      <trkpt lat="49.06546" lon="1.86577">
        <ele>123</ele>
        <time>2024-02-17T19:39:32Z</time>
      </trkpt>
      <trkpt lat="49.0659" lon="1.86529">
        <ele>129.4</ele>
        <time>2024-02-17T19:40:44Z</time>
      </trkpt>
      <trkpt lat="49.06622" lon="1.86462">
        <ele>135.5</ele>
        <time>2024-02-17T19:41:57Z</time>
      </trkpt>
      <trkpt lat="49.06612" lon="1.8642">
        <ele>136.9</ele>
        <time>2024-02-17T19:42:36Z</time>
      </trkpt>
      <trkpt lat="49.06647" lon="1.8635">
        <ele>143.3</ele>
        <time>2024-02-17T19:43:53Z</time>
      </trkpt>
      <trkpt lat="49.06725" lon="1.86432">
        <ele>145.7</ele>
        <time>2024-02-17T19:45:59Z</time>
      </trkpt>
      <trkpt lat="49.06757" lon="1.86406">
        <ele>150</ele>
        <time>2024-02-17T19:46:48Z</time>
      </trkpt>
      <trkpt lat="49.06746" lon="1.86371">
        <ele>151</ele>
        <time>2024-02-17T19:47:22Z</time>
      </trkpt>
      <trkpt lat="49.06726" lon="1.86326">
        <ele>151.7</ele>
        <time>2024-02-17T19:48:09Z</time>
      </trkpt>
      <trkpt lat="49.06666" lon="1.86245">
        <ele>148.2</ele>
        <time>2024-02-17T19:49:56Z</time>
      </trkpt>
      <trkpt lat="49.06635" lon="1.86221">
        <ele>148</ele>
        <time>2024-02-17T19:50:42Z</time>
      </trkpt>
      <trkpt lat="49.06613" lon="1.86153">
        <ele>149.6</ele>
        <time>2024-02-17T19:51:49Z</time>
      </trkpt>
      <trkpt lat="49.06522" lon="1.86036">
        <ele>156.5</ele>
        <time>2024-02-17T19:54:27Z</time>
      </trkpt>
      <trkpt lat="49.06496" lon="1.8603">
        <ele>155.8</ele>
        <time>2024-02-17T19:55:03Z</time>
      </trkpt>
      <trkpt lat="49.06479" lon="1.86045">
        <ele>154.6</ele>
        <time>2024-02-17T19:55:29Z</time>
      </trkpt>
      <trkpt lat="49.06422" lon="1.86059">
        <ele>151.4</ele>
        <time>2024-02-17T19:56:46Z</time>
      </trkpt>
      <trkpt lat="49.0638" lon="1.86012">
        <ele>148</ele>
        <time>2024-02-17T19:57:55Z</time>
      </trkpt>
      <trkpt lat="49.06359" lon="1.85994">
        <ele>146</ele>
        <time>2024-02-17T19:58:27Z</time>
      </trkpt>
      <trkpt lat="49.06321" lon="1.85948">
        <ele>143.2</ele>
        <time>2024-02-17T19:59:32Z</time>
      </trkpt>
      <trkpt lat="49.06292" lon="1.85896">
        <ele>138.7</ele>
        <time>2024-02-17T20:00:32Z</time>
      </trkpt>
      <trkpt lat="49.06277" lon="1.85829">
        <ele>134.8</ele>
        <time>2024-02-17T20:01:34Z</time>
      </trkpt>
      <trkpt lat="49.06257" lon="1.85769">
        <ele>131.2</ele>
        <time>2024-02-17T20:02:33Z</time>
      </trkpt>
      <trkpt lat="49.06249" lon="1.8573">
        <ele>129.2</ele>
        <time>2024-02-17T20:03:08Z</time>
      </trkpt>
      <trkpt lat="49.06247" lon="1.85684">
        <ele>127.9</ele>
        <time>2024-02-17T20:03:49Z</time>
      </trkpt>
      <trkpt lat="49.06257" lon="1.85592">
        <ele>125.6</ele>
        <time>2024-02-17T20:05:10Z</time>
      </trkpt>
      <trkpt lat="49.06263" lon="1.85575">
        <ele>125.3</ele>
        <time>2024-02-17T20:05:27Z</time>
      </trkpt>
      <trkpt lat="49.06247" lon="1.85527">
        <ele>123.8</ele>
        <time>2024-02-17T20:06:14Z</time>
      </trkpt>
      <trkpt lat="49.06215" lon="1.8545">
        <ele>122.8</ele>
        <time>2024-02-17T20:07:34Z</time>
      </trkpt>
      <trkpt lat="49.06099" lon="1.85185">
        <ele>137.9</ele>
        <time>2024-02-17T20:12:13Z</time>
      </trkpt>
      <trkpt lat="49.06008" lon="1.84996">
        <ele>148.6</ele>
        <time>2024-02-17T20:15:38Z</time>
      </trkpt>
      <trkpt lat="49.05998" lon="1.8493">
        <ele>152</ele>
        <time>2024-02-17T20:16:37Z</time>
      </trkpt>
      <trkpt lat="49.05979" lon="1.84885">
        <ele>153.7</ele>
        <time>2024-02-17T20:17:24Z</time>
      </trkpt>
      <trkpt lat="49.05982" lon="1.84845">
        <ele>156.5</ele>
        <time>2024-02-17T20:17:59Z</time>
      </trkpt>
      <trkpt lat="49.05893" lon="1.84786">
        <ele>156.3</ele>
        <time>2024-02-17T20:20:08Z</time>
      </trkpt>
      <trkpt lat="49.05848" lon="1.84747">
        <ele>153.3</ele>
        <time>2024-02-17T20:21:17Z</time>
      </trkpt>
      <trkpt lat="49.05798" lon="1.84744">
        <ele>151.6</ele>
        <time>2024-02-17T20:22:24Z</time>
      </trkpt>
      <trkpt lat="49.05781" lon="1.84752">
        <ele>151.7</ele>
        <time>2024-02-17T20:22:48Z</time>
      </trkpt>
      <trkpt lat="49.05751" lon="1.84775">
        <ele>151.1</ele>
        <time>2024-02-17T20:23:33Z</time>
      </trkpt>
      <trkpt lat="49.05738" lon="1.8478">
        <ele>150.9</ele>
        <time>2024-02-17T20:23:51Z</time>
      </trkpt>
      <trkpt lat="49.0572" lon="1.84779">
        <ele>150.8</ele>
        <time>2024-02-17T20:24:15Z</time>
      </trkpt>
      <trkpt lat="49.05611" lon="1.84703">
        <ele>149.7</ele>
        <time>2024-02-17T20:26:55Z</time>
      </trkpt>
      <trkpt lat="49.05433" lon="1.84672">
        <ele>140.3</ele>
        <time>2024-02-17T20:30:54Z</time>
      </trkpt>
      <trkpt lat="49.05334" lon="1.84603">
        <ele>142.3</ele>
        <time>2024-02-17T20:33:19Z</time>
      </trkpt>
      <trkpt lat="49.05282" lon="1.84591">
        <ele>144.6</ele>
        <time>2024-02-17T20:34:29Z</time>
      </trkpt>
      <trkpt lat="49.05215" lon="1.84581">
        <ele>150.9</ele>
        <time>2024-02-17T20:35:59Z</time>
      </trkpt>
      <trkpt lat="49.05191" lon="1.84556">
        <ele>154.2</ele>
        <time>2024-02-17T20:36:38Z</time>
      </trkpt>
      <trkpt lat="49.05143" lon="1.8455">
        <ele>156.6</ele>
        <time>2024-02-17T20:37:42Z</time>
      </trkpt>
      <trkpt lat="49.05103" lon="1.84564">
        <ele>152.7</ele>
        <time>2024-02-17T20:38:37Z</time>
      </trkpt>
      <trkpt lat="49.0501" lon="1.84588">
        <ele>153.7</ele>
        <time>2024-02-17T20:40:43Z</time>
      </trkpt>
      <trkpt lat="49.04934" lon="1.84643">
        <ele>157.2</ele>
        <time>2024-02-17T20:42:35Z</time>
      </trkpt>
      <trkpt lat="49.04922" lon="1.84663">
        <ele>156.2</ele>
        <time>2024-02-17T20:42:59Z</time>
      </trkpt>
      <trkpt lat="49.04912" lon="1.84709">
        <ele>154.5</ele>
        <time>2024-02-17T20:43:41Z</time>
      </trkpt>
      <trkpt lat="49.04902" lon="1.84729">
        <ele>153.6</ele>
        <time>2024-02-17T20:44:03Z</time>
      </trkpt>
      <trkpt lat="49.04803" lon="1.84735">
        <ele>147.9</ele>
        <time>2024-02-17T20:46:15Z</time>
      </trkpt>
      <trkpt lat="49.0476" lon="1.8474">
        <ele>145.5</ele>
        <time>2024-02-17T20:47:13Z</time>
      </trkpt>
      <trkpt lat="49.04736" lon="1.84803">
        <ele>141.6</ele>
        <time>2024-02-17T20:48:17Z</time>
      </trkpt>
      <trkpt lat="49.04705" lon="1.84848">
        <ele>137.4</ele>
        <time>2024-02-17T20:49:14Z</time>
      </trkpt>
      <trkpt lat="49.04693" lon="1.84874">
        <ele>134.4</ele>
        <time>2024-02-17T20:49:41Z</time>
      </trkpt>
      <trkpt lat="49.04723" lon="1.84971">
        <ele>131.1</ele>
        <time>2024-02-17T20:51:15Z</time>
      </trkpt>
      <trkpt lat="49.04688" lon="1.85068">
        <ele>127.8</ele>
        <time>2024-02-17T20:52:52Z</time>
      </trkpt>
      <trkpt lat="49.04672" lon="1.85099">
        <ele>127.1</ele>
        <time>2024-02-17T20:53:27Z</time>
      </trkpt>
      <trkpt lat="49.04643" lon="1.85119">
        <ele>126.1</ele>
        <time>2024-02-17T20:54:09Z</time>
      </trkpt>
      <trkpt lat="49.04626" lon="1.85127">
        <ele>125.7</ele>
        <time>2024-02-17T20:54:33Z</time>
      </trkpt>
      <trkpt lat="49.04631" lon="1.85166">
        <ele>124.7</ele>
        <time>2024-02-17T20:55:08Z</time>
      </trkpt>
      <trkpt lat="49.04653" lon="1.85232">
        <ele>124.5</ele>
        <time>2024-02-17T20:56:12Z</time>
      </trkpt>
      <trkpt lat="49.04647" lon="1.85261">
        <ele>124.3</ele>
        <time>2024-02-17T20:56:39Z</time>
      </trkpt>
      <trkpt lat="49.04593" lon="1.85273">
        <ele>123</ele>
        <time>2024-02-17T20:57:52Z</time>
      </trkpt>
      <trkpt lat="49.04555" lon="1.85286">
        <ele>122</ele>
        <time>2024-02-17T20:58:44Z</time>
      </trkpt>
      <trkpt lat="49.04551" lon="1.85297">
        <ele>121.9</ele>
        <time>2024-02-17T20:58:55Z</time>
      </trkpt>
      <trkpt lat="49.04515" lon="1.85299">
        <ele>120.8</ele>
        <time>2024-02-17T20:59:43Z</time>
      </trkpt>
      <trkpt lat="49.0455" lon="1.85297">
        <ele>121.9</ele>
        <time>2024-02-17T21:00:30Z</time>
      </trkpt>
      <trkpt lat="49.04555" lon="1.85286">
        <ele>122</ele>
        <time>2024-02-17T21:00:41Z</time>
      </trkpt>
      <trkpt lat="49.04593" lon="1.85273">
        <ele>123</ele>
        <time>2024-02-17T21:01:33Z</time>
      </trkpt>
      <trkpt lat="49.04647" lon="1.85261">
        <ele>124.3</ele>
        <time>2024-02-17T21:02:46Z</time>
      </trkpt>
      <trkpt lat="49.04653" lon="1.85234">
        <ele>124.5</ele>
        <time>2024-02-17T21:03:11Z</time>
      </trkpt>
      <trkpt lat="49.04638" lon="1.85185">
        <ele>124.9</ele>
        <time>2024-02-17T21:03:58Z</time>
      </trkpt>
      <trkpt lat="49.04626" lon="1.85129">
        <ele>125.7</ele>
        <time>2024-02-17T21:04:50Z</time>
      </trkpt>
      <trkpt lat="49.04616" lon="1.85037">
        <ele>126.7</ele>
        <time>2024-02-17T21:06:11Z</time>
      </trkpt>
      <trkpt lat="49.0461" lon="1.85024">
        <ele>127</ele>
        <time>2024-02-17T21:06:25Z</time>
      </trkpt>
      <trkpt lat="49.046" lon="1.85024">
        <ele>126.6</ele>
        <time>2024-02-17T21:06:39Z</time>
      </trkpt>
      <trkpt lat="49.04531" lon="1.85061">
        <ele>124.8</ele>
        <time>2024-02-17T21:08:16Z</time>
      </trkpt>
      <trkpt lat="49.04511" lon="1.85046">
        <ele>124.4</ele>
        <time>2024-02-17T21:08:46Z</time>
      </trkpt>
      <trkpt lat="49.04445" lon="1.8485">
        <ele>122.6</ele>
        <time>2024-02-17T21:11:59Z</time>
      </trkpt>
      <trkpt lat="49.04342" lon="1.84814">
        <ele>119.3</ele>
        <time>2024-02-17T21:14:20Z</time>
      </trkpt>
      <trkpt lat="49.04314" lon="1.84793">
        <ele>118.3</ele>
        <time>2024-02-17T21:15:01Z</time>
      </trkpt>
      <trkpt lat="49.04219" lon="1.84774">
        <ele>112.8</ele>
        <time>2024-02-17T21:17:09Z</time>
      </trkpt>
      <trkpt lat="49.04087" lon="1.84695">
        <ele>107</ele>
        <time>2024-02-17T21:20:18Z</time>
      </trkpt>
      <trkpt lat="49.04068" lon="1.84731">
        <ele>105.4</ele>
        <time>2024-02-17T21:20:59Z</time>
      </trkpt>
      <trkpt lat="49.04055" lon="1.84734">
        <ele>105</ele>
        <time>2024-02-17T21:21:16Z</time>
      </trkpt>
      <trkpt lat="49.04" lon="1.84717">
        <ele>103</ele>
        <time>2024-02-17T21:22:31Z</time>
      </trkpt>
      <trkpt lat="49.03964" lon="1.84686">
        <ele>98.1</ele>
        <time>2024-02-17T21:23:26Z</time>
      </trkpt>
      <trkpt lat="49.03934" lon="1.84648">
        <ele>92</ele>
        <time>2024-02-17T21:24:19Z</time>
      </trkpt>
      <trkpt lat="49.03915" lon="1.84595">
        <ele>85.1</ele>
        <time>2024-02-17T21:25:11Z</time>
      </trkpt>
      <trkpt lat="49.03895" lon="1.84521">
        <ele>77.5</ele>
        <time>2024-02-17T21:26:21Z</time>
      </trkpt>
      <trkpt lat="49.03871" lon="1.84486">
        <ele>73.9</ele>
        <time>2024-02-17T21:27:06Z</time>
      </trkpt>
      <trkpt lat="49.0385" lon="1.84484">
        <ele>71.1</ele>
        <time>2024-02-17T21:27:34Z</time>
      </trkpt>
      <trkpt lat="49.03782" lon="1.84537">
        <ele>61.6</ele>
        <time>2024-02-17T21:29:16Z</time>
      </trkpt>
      <trkpt lat="49.03763" lon="1.84539">
        <ele>59.4</ele>
        <time>2024-02-17T21:29:41Z</time>
      </trkpt>
      <trkpt lat="49.03702" lon="1.84511">
        <ele>55.4</ele>
        <time>2024-02-17T21:31:06Z</time>
      </trkpt>
      <trkpt lat="49.03652" lon="1.84766">
        <ele>53</ele>
        <time>2024-02-17T21:34:59Z</time>
      </trkpt>
      <trkpt lat="49.03626" lon="1.84821">
        <ele>53.3</ele>
        <time>2024-02-17T21:35:58Z</time>
      </trkpt>
      <trkpt lat="49.03527" lon="1.84965">
        <ele>63.4</ele>
        <time>2024-02-17T21:39:01Z</time>
      </trkpt>
      <trkpt lat="49.03397" lon="1.85081">
        <ele>81.2</ele>
        <time>2024-02-17T21:42:22Z</time>
      </trkpt>
      <trkpt lat="49.03365" lon="1.85139">
        <ele>84.4</ele>
        <time>2024-02-17T21:43:28Z</time>
      </trkpt>
      <trkpt lat="49.03319" lon="1.85193">
        <ele>86.5</ele>
        <time>2024-02-17T21:44:46Z</time>
      </trkpt>
      <trkpt lat="49.03303" lon="1.85304">
        <ele>88.2</ele>
        <time>2024-02-17T21:46:25Z</time>
      </trkpt>
      <trkpt lat="49.03256" lon="1.85476">
        <ele>86.6</ele>
        <time>2024-02-17T21:49:08Z</time>
      </trkpt>
      <trkpt lat="49.03236" lon="1.85621">
        <ele>84.5</ele>
        <time>2024-02-17T21:51:18Z</time>
      </trkpt>
      <trkpt lat="49.03237" lon="1.85783">
        <ele>82.5</ele>
        <time>2024-02-17T21:53:39Z</time>
      </trkpt>
      <trkpt lat="49.0324" lon="1.8585">
        <ele>81.5</ele>
        <time>2024-02-17T21:54:38Z</time>
      </trkpt>
      <trkpt lat="49.0323" lon="1.85994">
        <ele>77.7</ele>
        <time>2024-02-17T21:56:45Z</time>
      </trkpt>
      <trkpt lat="49.03216" lon="1.86078">
        <ele>75.6</ele>
        <time>2024-02-17T21:58:01Z</time>
      </trkpt>
      <trkpt lat="49.03202" lon="1.86269">
        <ele>69.3</ele>
        <time>2024-02-17T22:00:49Z</time>
      </trkpt>
      <trkpt lat="49.03211" lon="1.86304">
        <ele>69</ele>
        <time>2024-02-17T22:01:22Z</time>
      </trkpt>
      <trkpt lat="49.03244" lon="1.86375">
        <ele>65.7</ele>
        <time>2024-02-17T22:02:38Z</time>
      </trkpt>
      <trkpt lat="49.03304" lon="1.86454">
        <ele>57.8</ele>
        <time>2024-02-17T22:04:24Z</time>
      </trkpt>
      <trkpt lat="49.03361" lon="1.86481">
        <ele>45.7</ele>
        <time>2024-02-17T22:05:43Z</time>
      </trkpt>
      <trkpt lat="49.03409" lon="1.86517">
        <ele>38.9</ele>
        <time>2024-02-17T22:06:55Z</time>
      </trkpt>
      <trkpt lat="49.03401" lon="1.86544">
        <ele>38.2</ele>
        <time>2024-02-17T22:07:21Z</time>
      </trkpt>
      <trkpt lat="49.03378" lon="1.86585">
        <ele>37.3</ele>
        <time>2024-02-17T22:08:08Z</time>
      </trkpt>
      <trkpt lat="49.03343" lon="1.8663">
        <ele>37.3</ele>
        <time>2024-02-17T22:09:09Z</time>
      </trkpt>
      <trkpt lat="49.03308" lon="1.86662">
        <ele>38.5</ele>
        <time>2024-02-17T22:10:03Z</time>
      </trkpt>
      <trkpt lat="49.03269" lon="1.86687">
        <ele>37.3</ele>
        <time>2024-02-17T22:11:00Z</time>
      </trkpt>
      <trkpt lat="49.03215" lon="1.86762">
        <ele>36.1</ele>
        <time>2024-02-17T22:12:37Z</time>
      </trkpt>
      <trkpt lat="49.03237" lon="1.86755">
        <ele>36</ele>
        <time>2024-02-17T22:13:07Z</time>
      </trkpt>
      <trkpt lat="49.03225" lon="1.86847">
        <ele>37.6</ele>
        <time>2024-02-17T22:14:29Z</time>
      </trkpt>
      <trkpt lat="49.03198" lon="1.87012">
        <ele>43.3</ele>
        <time>2024-02-17T22:16:58Z</time>
      </trkpt>
      <trkpt lat="49.03191" lon="1.87041">
        <ele>44.8</ele>
        <time>2024-02-17T22:17:25Z</time>
      </trkpt>
      <trkpt lat="49.03189" lon="1.87074">
        <ele>47.4</ele>
        <time>2024-02-17T22:17:54Z</time>
      </trkpt>
      <trkpt lat="49.03192" lon="1.8713">
        <ele>50.3</ele>
        <time>2024-02-17T22:18:43Z</time>
      </trkpt>
      <trkpt lat="49.03214" lon="1.87236">
        <ele>58.4</ele>
        <time>2024-02-17T22:20:21Z</time>
      </trkpt>
      <trkpt lat="49.03223" lon="1.87324">
        <ele>61.1</ele>
        <time>2024-02-17T22:21:39Z</time>
      </trkpt>
      <trkpt lat="49.03242" lon="1.87381">
        <ele>64.6</ele>
        <time>2024-02-17T22:22:34Z</time>
      </trkpt>
      <trkpt lat="49.03246" lon="1.87423">
        <ele>65.6</ele>
        <time>2024-02-17T22:23:12Z</time>
      </trkpt>
      <trkpt lat="49.03241" lon="1.87484">
        <ele>67.2</ele>
        <time>2024-02-17T22:24:05Z</time>
      </trkpt>
      <trkpt lat="49.03217" lon="1.87606">
        <ele>71.1</ele>
        <time>2024-02-17T22:25:57Z</time>
      </trkpt>
      <trkpt lat="49.03215" lon="1.87631">
        <ele>73.3</ele>
        <time>2024-02-17T22:26:19Z</time>
      </trkpt>
      <trkpt lat="49.03207" lon="1.87641">
        <ele>75.5</ele>
        <time>2024-02-17T22:26:33Z</time>
      </trkpt>
      <trkpt lat="49.0321" lon="1.8767">
        <ele>78.6</ele>
        <time>2024-02-17T22:26:58Z</time>
      </trkpt>
      <trkpt lat="49.03206" lon="1.87672">
        <ele>79.5</ele>
        <time>2024-02-17T22:27:04Z</time>
      </trkpt>
      <trkpt lat="49.03195" lon="1.87668">
        <ele>81</ele>
        <time>2024-02-17T22:27:19Z</time>
      </trkpt>
      <trkpt lat="49.03193" lon="1.87677">
        <ele>82.4</ele>
        <time>2024-02-17T22:27:27Z</time>
      </trkpt>
      <trkpt lat="49.03198" lon="1.87697">
        <ele>83.7</ele>
        <time>2024-02-17T22:27:46Z</time>
      </trkpt>
      <trkpt lat="49.03203" lon="1.87705">
        <ele>83.9</ele>
        <time>2024-02-17T22:27:56Z</time>
      </trkpt>
      <trkpt lat="49.03203" lon="1.87713">
        <ele>84.9</ele>
        <time>2024-02-17T22:28:03Z</time>
      </trkpt>
      <trkpt lat="49.03199" lon="1.87718">
        <ele>86.4</ele>
        <time>2024-02-17T22:28:10Z</time>
      </trkpt>
      <trkpt lat="49.03183" lon="1.87726">
        <ele>90.1</ele>
        <time>2024-02-17T22:28:32Z</time>
      </trkpt>
      <trkpt lat="49.03168" lon="1.87741">
        <ele>93.8</ele>
        <time>2024-02-17T22:28:56Z</time>
      </trkpt>
      <trkpt lat="49.03079" lon="1.87671">
        <ele>91.2</ele>
        <time>2024-02-17T22:31:10Z</time>
      </trkpt>
      <trkpt lat="49.03048" lon="1.87667">
        <ele>89.5</ele>
        <time>2024-02-17T22:31:51Z</time>
      </trkpt>
      <trkpt lat="49.03009" lon="1.87648">
        <ele>85.5</ele>
        <time>2024-02-17T22:32:46Z</time>
      </trkpt>
      <trkpt lat="49.02924" lon="1.87628">
        <ele>78.1</ele>
        <time>2024-02-17T22:34:41Z</time>
      </trkpt>
      <trkpt lat="49.02874" lon="1.87639">
        <ele>74.9</ele>
        <time>2024-02-17T22:35:48Z</time>
      </trkpt>
      <trkpt lat="49.028" lon="1.87777">
        <ele>81.9</ele>
        <time>2024-02-17T22:38:24Z</time>
      </trkpt>
      <trkpt lat="49.02762" lon="1.87879">
        <ele>82.2</ele>
        <time>2024-02-17T22:40:07Z</time>
      </trkpt>
      <trkpt lat="49.02745" lon="1.87954">
        <ele>82.6</ele>
        <time>2024-02-17T22:41:16Z</time>
      </trkpt>
      <trkpt lat="49.0273" lon="1.88027">
        <ele>83.4</ele>
        <time>2024-02-17T22:42:23Z</time>
      </trkpt>
      <trkpt lat="49.02704" lon="1.88225">
        <ele>83.6</ele>
        <time>2024-02-17T22:45:20Z</time>
      </trkpt>
      <trkpt lat="49.02703" lon="1.8831">
        <ele>78.2</ele>
        <time>2024-02-17T22:46:34Z</time>
      </trkpt>
      <trkpt lat="49.02708" lon="1.88358">
        <ele>75.7</ele>
        <time>2024-02-17T22:47:17Z</time>
      </trkpt>
      <trkpt lat="49.02736" lon="1.88519">
        <ele>70.8</ele>
        <time>2024-02-17T22:49:42Z</time>
      </trkpt>
      <trkpt lat="49.0274" lon="1.88626">
        <ele>71.7</ele>
        <time>2024-02-17T22:51:16Z</time>
      </trkpt>
      <trkpt lat="49.02721" lon="1.887">
        <ele>74.6</ele>
        <time>2024-02-17T22:52:26Z</time>
      </trkpt>
      <trkpt lat="49.02687" lon="1.88775">
        <ele>80.9</ele>
        <time>2024-02-17T22:53:46Z</time>
      </trkpt>
      <trkpt lat="49.02631" lon="1.88876">
        <ele>79.9</ele>
        <time>2024-02-17T22:55:41Z</time>
      </trkpt>
      <trkpt lat="49.02624" lon="1.88911">
        <ele>78.9</ele>
        <time>2024-02-17T22:56:13Z</time>
      </trkpt>
      <trkpt lat="49.02624" lon="1.88965">
        <ele>76.8</ele>
        <time>2024-02-17T22:57:01Z</time>
      </trkpt>
      <trkpt lat="49.02618" lon="1.89028">
        <ele>70.7</ele>
        <time>2024-02-17T22:57:56Z</time>
      </trkpt>
      <trkpt lat="49.02561" lon="1.89117">
        <ele>59.2</ele>
        <time>2024-02-17T22:59:45Z</time>
      </trkpt>
      <trkpt lat="49.02518" lon="1.89215">
        <ele>50.6</ele>
        <time>2024-02-17T23:01:28Z</time>
      </trkpt>
      <trkpt lat="49.02517" lon="1.89242">
        <ele>49.1</ele>
        <time>2024-02-17T23:01:52Z</time>
      </trkpt>
      <trkpt lat="49.0249" lon="1.89255">
        <ele>47.3</ele>
        <time>2024-02-17T23:02:30Z</time>
      </trkpt>
      <trkpt lat="49.02469" lon="1.89259">
        <ele>46.3</ele>
        <time>2024-02-17T23:02:58Z</time>
      </trkpt>
      <trkpt lat="49.02458" lon="1.89323">
        <ele>49.4</ele>
        <time>2024-02-17T23:03:56Z</time>
      </trkpt>
      <trkpt lat="49.02424" lon="1.89364">
        <ele>54</ele>
        <time>2024-02-17T23:04:54Z</time>
      </trkpt>
      <trkpt lat="49.02402" lon="1.89381">
        <ele>58.8</ele>
        <time>2024-02-17T23:05:27Z</time>
      </trkpt>
      <trkpt lat="49.02351" lon="1.89389">
        <ele>62</ele>
        <time>2024-02-17T23:06:35Z</time>
      </trkpt>
      <trkpt lat="49.02361" lon="1.89402">
        <ele>63.4</ele>
        <time>2024-02-17T23:06:53Z</time>
      </trkpt>
      <trkpt lat="49.02389" lon="1.89408">
        <ele>64.4</ele>
        <time>2024-02-17T23:07:30Z</time>
      </trkpt>
      <trkpt lat="49.02378" lon="1.89424">
        <ele>66.3</ele>
        <time>2024-02-17T23:07:51Z</time>
      </trkpt>
      <trkpt lat="49.0237" lon="1.89427">
        <ele>66.6</ele>
        <time>2024-02-17T23:08:02Z</time>
      </trkpt>
      <trkpt lat="49.0235" lon="1.89427">
        <ele>66.7</ele>
        <time>2024-02-17T23:08:28Z</time>
      </trkpt>
      <trkpt lat="49.02341" lon="1.89441">
        <ele>68.6</ele>
        <time>2024-02-17T23:08:45Z</time>
      </trkpt>
      <trkpt lat="49.02333" lon="1.8948">
        <ele>72.6</ele>
        <time>2024-02-17T23:09:21Z</time>
      </trkpt>
      <trkpt lat="49.02329" lon="1.89534">
        <ele>77.3</ele>
        <time>2024-02-17T23:10:09Z</time>
      </trkpt>
      <trkpt lat="49.02332" lon="1.8962">
        <ele>82.6</ele>
        <time>2024-02-17T23:11:24Z</time>
      </trkpt>
      <trkpt lat="49.02337" lon="1.89669">
        <ele>86.1</ele>
        <time>2024-02-17T23:12:07Z</time>
      </trkpt>
      <trkpt lat="49.02349" lon="1.89739">
        <ele>88.5</ele>
        <time>2024-02-17T23:13:11Z</time>
      </trkpt>
      <trkpt lat="49.02356" lon="1.89814">
        <ele>89.1</ele>
        <time>2024-02-17T23:14:17Z</time>
      </trkpt>
      <trkpt lat="49.02376" lon="1.89927">
        <ele>87.7</ele>
        <time>2024-02-17T23:16:00Z</time>
      </trkpt>
      <trkpt lat="49.02405" lon="1.90063">
        <ele>84.9</ele>
        <time>2024-02-17T23:18:05Z</time>
      </trkpt>
      <trkpt lat="49.02445" lon="1.90584">
        <ele>88</ele>
        <time>2024-02-17T23:25:44Z</time>
      </trkpt>
      <trkpt lat="49.02464" lon="1.90885">
        <ele>92.9</ele>
        <time>2024-02-17T23:30:08Z</time>
      </trkpt>
      <trkpt lat="49.02462" lon="1.90982">
        <ele>92.5</ele>
        <time>2024-02-17T23:31:33Z</time>
      </trkpt>
      <trkpt lat="49.02444" lon="1.91074">
        <ele>91.3</ele>
        <time>2024-02-17T23:32:57Z</time>
      </trkpt>
      <trkpt lat="49.02446" lon="1.91125">
        <ele>90.6</ele>
        <time>2024-02-17T23:33:42Z</time>
      </trkpt>
      <trkpt lat="49.02439" lon="1.91375">
        <ele>80.6</ele>
        <time>2024-02-17T23:37:21Z</time>
      </trkpt>
      <trkpt lat="49.02454" lon="1.91503">
        <ele>73.1</ele>
        <time>2024-02-17T23:39:15Z</time>
      </trkpt>
      <trkpt lat="49.02474" lon="1.91593">
        <ele>69.1</ele>
        <time>2024-02-17T23:40:38Z</time>
      </trkpt>
      <trkpt lat="49.02527" lon="1.91713">
        <ele>66.6</ele>
        <time>2024-02-17T23:42:44Z</time>
      </trkpt>
      <trkpt lat="49.02538" lon="1.91771">
        <ele>64.6</ele>
        <time>2024-02-17T23:43:37Z</time>
      </trkpt>
      <trkpt lat="49.02541" lon="1.91865">
        <ele>57.6</ele>
        <time>2024-02-17T23:45:00Z</time>
      </trkpt>
      <trkpt lat="49.02558" lon="1.91887">
        <ele>56.6</ele>
        <time>2024-02-17T23:45:29Z</time>
      </trkpt>
      <trkpt lat="49.02527" lon="1.91923">
        <ele>53.5</ele>
        <time>2024-02-17T23:46:21Z</time>
      </trkpt>
      <trkpt lat="49.02504" lon="1.91958">
        <ele>50.2</ele>
        <time>2024-02-17T23:47:05Z</time>
      </trkpt>
      <trkpt lat="49.02485" lon="1.91981">
        <ele>47.6</ele>
        <time>2024-02-17T23:47:37Z</time>
      </trkpt>
      <trkpt lat="49.02464" lon="1.91994">
        <ele>45.6</ele>
        <time>2024-02-17T23:48:07Z</time>
      </trkpt>
      <trkpt lat="49.02427" lon="1.92022">
        <ele>41.7</ele>
        <time>2024-02-17T23:49:02Z</time>
      </trkpt>
      <trkpt lat="49.02443" lon="1.92066">
        <ele>39.6</ele>
        <time>2024-02-17T23:49:47Z</time>
      </trkpt>
      <trkpt lat="49.02449" lon="1.92161">
        <ele>38.7</ele>
        <time>2024-02-17T23:51:10Z</time>
      </trkpt>
      <trkpt lat="49.02459" lon="1.92248">
        <ele>38.1</ele>
        <time>2024-02-17T23:52:27Z</time>
      </trkpt>
      <trkpt lat="49.02313" lon="1.92416">
        <ele>34.7</ele>
        <time>2024-02-17T23:56:31Z</time>
      </trkpt>
      <trkpt lat="49.02273" lon="1.92329">
        <ele>34.3</ele>
        <time>2024-02-17T23:58:04Z</time>
      </trkpt>
      <trkpt lat="49.02245" lon="1.92288">
        <ele>34.8</ele>
        <time>2024-02-17T23:58:56Z</time>
      </trkpt>
      <trkpt lat="49.02234" lon="1.92361">
        <ele>38.7</ele>
        <time>2024-02-18T00:00:02Z</time>
      </trkpt>
      <trkpt lat="49.02223" lon="1.92406">
        <ele>42.2</ele>
        <time>2024-02-18T00:00:44Z</time>
      </trkpt>
      <trkpt lat="49.02185" lon="1.92465">
        <ele>52.4</ele>
        <time>2024-02-18T00:01:56Z</time>
      </trkpt>
      <trkpt lat="49.0214" lon="1.92568">
        <ele>61.8</ele>
        <time>2024-02-18T00:03:44Z</time>
      </trkpt>
      <trkpt lat="49.02203" lon="1.9265">
        <ele>62.2</ele>
        <time>2024-02-18T00:05:35Z</time>
      </trkpt>
      <trkpt lat="49.02259" lon="1.92693">
        <ele>60.2</ele>
        <time>2024-02-18T00:06:59Z</time>
      </trkpt>
      <trkpt lat="49.02361" lon="1.92812">
        <ele>58.5</ele>
        <time>2024-02-18T00:09:50Z</time>
      </trkpt>
      <trkpt lat="49.02389" lon="1.92839">
        <ele>57.2</ele>
        <time>2024-02-18T00:10:34Z</time>
      </trkpt>
      <trkpt lat="49.02428" lon="1.92868">
        <ele>56.8</ele>
        <time>2024-02-18T00:11:32Z</time>
      </trkpt>
      <trkpt lat="49.02456" lon="1.92902">
        <ele>56.2</ele>
        <time>2024-02-18T00:12:20Z</time>
      </trkpt>
      <trkpt lat="49.02485" lon="1.92954">
        <ele>55.3</ele>
        <time>2024-02-18T00:13:20Z</time>
      </trkpt>
      <trkpt lat="49.0253" lon="1.93053">
        <ele>55.3</ele>
        <time>2024-02-18T00:15:05Z</time>
      </trkpt>
      <trkpt lat="49.02576" lon="1.93138">
        <ele>54.3</ele>
        <time>2024-02-18T00:16:41Z</time>
      </trkpt>
      <trkpt lat="49.02605" lon="1.9321">
        <ele>51.8</ele>
        <time>2024-02-18T00:17:55Z</time>
      </trkpt>
      <trkpt lat="49.02648" lon="1.93271">
        <ele>49</ele>
        <time>2024-02-18T00:19:14Z</time>
      </trkpt>
      <trkpt lat="49.02671" lon="1.93319">
        <ele>48.5</ele>
        <time>2024-02-18T00:20:06Z</time>
      </trkpt>
      <trkpt lat="49.0269" lon="1.93393">
        <ele>48.8</ele>
        <time>2024-02-18T00:21:15Z</time>
      </trkpt>
      <trkpt lat="49.02709" lon="1.93433">
        <ele>48.4</ele>
        <time>2024-02-18T00:21:59Z</time>
      </trkpt>
      <trkpt lat="49.02786" lon="1.93528">
        <ele>52</ele>
        <time>2024-02-18T00:24:11Z</time>
      </trkpt>
      <trkpt lat="49.02809" lon="1.93566">
        <ele>54.5</ele>
        <time>2024-02-18T00:24:56Z</time>
      </trkpt>
      <trkpt lat="49.02956" lon="1.93855">
        <ele>52</ele>
        <time>2024-02-18T00:30:16Z</time>
      </trkpt>
      <trkpt lat="49.02943" lon="1.93787">
        <ele>48.9</ele>
        <time>2024-02-18T00:31:18Z</time>
      </trkpt>
      <trkpt lat="49.0296" lon="1.93754">
        <ele>46</ele>
        <time>2024-02-18T00:31:55Z</time>
      </trkpt>
      <trkpt lat="49.02985" lon="1.93757">
        <ele>44.2</ele>
        <time>2024-02-18T00:32:28Z</time>
      </trkpt>
      <trkpt lat="49.03002" lon="1.93749">
        <ele>42.9</ele>
        <time>2024-02-18T00:32:52Z</time>
      </trkpt>
      <trkpt lat="49.031" lon="1.93609">
        <ele>43.7</ele>
        <time>2024-02-18T00:35:51Z</time>
      </trkpt>
      <trkpt lat="49.03072" lon="1.93566">
        <ele>43.1</ele>
        <time>2024-02-18T00:36:44Z</time>
      </trkpt>
      <trkpt lat="49.03089" lon="1.93505">
        <ele>47.3</ele>
        <time>2024-02-18T00:37:42Z</time>
      </trkpt>
      <trkpt lat="49.03093" lon="1.93472">
        <ele>49.4</ele>
        <time>2024-02-18T00:38:11Z</time>
      </trkpt>
      <trkpt lat="49.03092" lon="1.9342">
        <ele>51.8</ele>
        <time>2024-02-18T00:38:57Z</time>
      </trkpt>
      <trkpt lat="49.03079" lon="1.93379">
        <ele>53.4</ele>
        <time>2024-02-18T00:39:37Z</time>
      </trkpt>
      <trkpt lat="49.03088" lon="1.9336">
        <ele>54</ele>
        <time>2024-02-18T00:39:57Z</time>
      </trkpt>
      <trkpt lat="49.03142" lon="1.93309">
        <ele>58.2</ele>
        <time>2024-02-18T00:41:22Z</time>
      </trkpt>
      <trkpt lat="49.0317" lon="1.9331">
        <ele>61</ele>
        <time>2024-02-18T00:41:59Z</time>
      </trkpt>
      <trkpt lat="49.03263" lon="1.93411">
        <ele>68.7</ele>
        <time>2024-02-18T00:44:32Z</time>
      </trkpt>
      <trkpt lat="49.03276" lon="1.9342">
        <ele>69.8</ele>
        <time>2024-02-18T00:44:51Z</time>
      </trkpt>
      <trkpt lat="49.03293" lon="1.93422">
        <ele>71.5</ele>
        <time>2024-02-18T00:45:14Z</time>
      </trkpt>
      <trkpt lat="49.03413" lon="1.933">
        <ele>79.9</ele>
        <time>2024-02-18T00:48:26Z</time>
      </trkpt>
      <trkpt lat="49.03498" lon="1.93243">
        <ele>81</ele>
        <time>2024-02-18T00:50:30Z</time>
      </trkpt>
      <trkpt lat="49.03538" lon="1.93208">
        <ele>80</ele>
        <time>2024-02-18T00:51:32Z</time>
      </trkpt>
      <trkpt lat="49.0358" lon="1.93247">
        <ele>79.1</ele>
        <time>2024-02-18T00:52:37Z</time>
      </trkpt>
      <trkpt lat="49.03649" lon="1.93317">
        <ele>79</ele>
        <time>2024-02-18T00:54:28Z</time>
      </trkpt>
      <trkpt lat="49.03791" lon="1.93504">
        <ele>80.3</ele>
        <time>2024-02-18T00:58:38Z</time>
      </trkpt>
      <trkpt lat="49.0382" lon="1.93558">
        <ele>80</ele>
        <time>2024-02-18T00:59:39Z</time>
      </trkpt>
      <trkpt lat="49.03865" lon="1.93626">
        <ele>79.5</ele>
        <time>2024-02-18T01:01:04Z</time>
      </trkpt>
      <trkpt lat="49.0396" lon="1.93711">
        <ele>76.3</ele>
        <time>2024-02-18T01:03:31Z</time>
      </trkpt>
      <trkpt lat="49.03988" lon="1.93749">
        <ele>73.5</ele>
        <time>2024-02-18T01:04:21Z</time>
      </trkpt>
      <trkpt lat="49.0398" lon="1.93769">
        <ele>72.5</ele>
        <time>2024-02-18T01:04:41Z</time>
      </trkpt>
      <trkpt lat="49.03981" lon="1.93809">
        <ele>70.4</ele>
        <time>2024-02-18T01:05:16Z</time>
      </trkpt>
      <trkpt lat="49.03994" lon="1.93844">
        <ele>66.8</ele>
        <time>2024-02-18T01:05:51Z</time>
      </trkpt>
      <trkpt lat="49.04067" lon="1.9394">
        <ele>60.7</ele>
        <time>2024-02-18T01:08:00Z</time>
      </trkpt>
      <trkpt lat="49.04075" lon="1.93963">
        <ele>59.8</ele>
        <time>2024-02-18T01:08:23Z</time>
      </trkpt>
      <trkpt lat="49.04067" lon="1.94037">
        <ele>55.9</ele>
        <time>2024-02-18T01:09:28Z</time>
      </trkpt>
      <trkpt lat="49.04064" lon="1.94092">
        <ele>53.4</ele>
        <time>2024-02-18T01:10:17Z</time>
      </trkpt>
      <trkpt lat="49.04055" lon="1.9414">
        <ele>49.9</ele>
        <time>2024-02-18T01:11:00Z</time>
      </trkpt>
      <trkpt lat="49.04067" lon="1.94159">
        <ele>50.5</ele>
        <time>2024-02-18T01:11:23Z</time>
      </trkpt>
      <trkpt lat="49.04083" lon="1.94197">
        <ele>47.9</ele>
        <time>2024-02-18T01:12:03Z</time>
      </trkpt>
      <trkpt lat="49.04107" lon="1.94241">
        <ele>46.2</ele>
        <time>2024-02-18T01:12:53Z</time>
      </trkpt>
      <trkpt lat="49.0415" lon="1.9429">
        <ele>45.5</ele>
        <time>2024-02-18T01:14:05Z</time>
      </trkpt>
      <trkpt lat="49.04178" lon="1.94305">
        <ele>46</ele>
        <time>2024-02-18T01:14:44Z</time>
      </trkpt>
      <trkpt lat="49.04199" lon="1.94302">
        <ele>46.4</ele>
        <time>2024-02-18T01:15:12Z</time>
      </trkpt>
      <trkpt lat="49.04236" lon="1.94283">
        <ele>47.4</ele>
        <time>2024-02-18T01:16:04Z</time>
      </trkpt>
      <trkpt lat="49.04333" lon="1.94272">
        <ele>46</ele>
        <time>2024-02-18T01:18:14Z</time>
      </trkpt>
      <trkpt lat="49.04369" lon="1.94295">
        <ele>46.3</ele>
        <time>2024-02-18T01:19:06Z</time>
      </trkpt>
      <trkpt lat="49.04395" lon="1.94295">
        <ele>47.5</ele>
        <time>2024-02-18T01:19:41Z</time>
      </trkpt>
      <trkpt lat="49.04463" lon="1.94325">
        <ele>50.2</ele>
        <time>2024-02-18T01:21:15Z</time>
      </trkpt>
      <trkpt lat="49.04517" lon="1.94334">
        <ele>50</ele>
        <time>2024-02-18T01:22:28Z</time>
      </trkpt>
      <trkpt lat="49.04588" lon="1.94329">
        <ele>50.3</ele>
        <time>2024-02-18T01:24:03Z</time>
      </trkpt>
      <trkpt lat="49.04657" lon="1.94305">
        <ele>52</ele>
        <time>2024-02-18T01:25:37Z</time>
      </trkpt>
      <trkpt lat="49.04767" lon="1.94229">
        <ele>54.3</ele>
        <time>2024-02-18T01:28:18Z</time>
      </trkpt>
      <trkpt lat="49.04775" lon="1.94276">
        <ele>54.8</ele>
        <time>2024-02-18T01:29:01Z</time>
      </trkpt>
      <trkpt lat="49.04783" lon="1.94687">
        <ele>44.1</ele>
        <time>2024-02-18T01:35:00Z</time>
      </trkpt>
      <trkpt lat="49.0482" lon="1.94704">
        <ele>44.2</ele>
        <time>2024-02-18T01:35:52Z</time>
      </trkpt>
      <trkpt lat="49.04849" lon="1.94708">
        <ele>44.8</ele>
        <time>2024-02-18T01:36:31Z</time>
      </trkpt>
      <trkpt lat="49.04928" lon="1.94691">
        <ele>44.7</ele>
        <time>2024-02-18T01:38:17Z</time>
      </trkpt>
      <trkpt lat="49.04939" lon="1.94686">
        <ele>44.5</ele>
        <time>2024-02-18T01:38:33Z</time>
      </trkpt>
      <trkpt lat="49.04959" lon="1.94696">
        <ele>44.5</ele>
        <time>2024-02-18T01:39:01Z</time>
      </trkpt>
      <trkpt lat="49.04978" lon="1.9472">
        <ele>44.1</ele>
        <time>2024-02-18T01:39:34Z</time>
      </trkpt>
      <trkpt lat="49.05031" lon="1.94819">
        <ele>44.1</ele>
        <time>2024-02-18T01:41:25Z</time>
      </trkpt>
      <trkpt lat="49.0506" lon="1.9485">
        <ele>45.2</ele>
        <time>2024-02-18T01:42:13Z</time>
      </trkpt>
      <trkpt lat="49.0498" lon="1.94919">
        <ele>44.3</ele>
        <time>2024-02-18T01:44:15Z</time>
      </trkpt>
      <trkpt lat="49.04997" lon="1.94945">
        <ele>44.9</ele>
        <time>2024-02-18T01:44:48Z</time>
      </trkpt>
      <trkpt lat="49.05008" lon="1.94955">
        <ele>45.1</ele>
        <time>2024-02-18T01:45:05Z</time>
      </trkpt>
      <trkpt lat="49.05036" lon="1.94993">
        <ele>47.3</ele>
        <time>2024-02-18T01:45:55Z</time>
      </trkpt>
      <trkpt lat="49.05033" lon="1.95017">
        <ele>47.5</ele>
        <time>2024-02-18T01:46:16Z</time>
      </trkpt>
      <trkpt lat="49.05042" lon="1.95023">
        <ele>48.4</ele>
        <time>2024-02-18T01:46:29Z</time>
      </trkpt>
      <trkpt lat="49.05048" lon="1.95032">
        <ele>49.1</ele>
        <time>2024-02-18T01:46:40Z</time>
      </trkpt>
      <trkpt lat="49.05051" lon="1.95045">
        <ele>49</ele>
        <time>2024-02-18T01:46:52Z</time>
      </trkpt>
      <trkpt lat="49.05058" lon="1.95045">
        <ele>49.5</ele>
        <time>2024-02-18T01:47:02Z</time>
      </trkpt>
      <trkpt lat="49.05111" lon="1.95085">
        <ele>54.9</ele>
        <time>2024-02-18T01:48:21Z</time>
      </trkpt>
      <trkpt lat="49.0512" lon="1.95088">
        <ele>55.3</ele>
        <time>2024-02-18T01:48:33Z</time>
      </trkpt>
      <trkpt lat="49.05134" lon="1.95086">
        <ele>56</ele>
        <time>2024-02-18T01:48:52Z</time>
      </trkpt>
      <trkpt lat="49.05151" lon="1.95056">
        <ele>56</ele>
        <time>2024-02-18T01:49:26Z</time>
      </trkpt>
      <trkpt lat="49.0507" lon="1.94948">
        <ele>47.7</ele>
        <time>2024-02-18T01:51:50Z</time>
      </trkpt>
      <trkpt lat="49.05085" lon="1.94903">
        <ele>46.6</ele>
        <time>2024-02-18T01:52:34Z</time>
      </trkpt>
      <trkpt lat="49.05081" lon="1.94878">
        <ele>45.9</ele>
        <time>2024-02-18T01:52:57Z</time>
      </trkpt>
      <trkpt lat="49.05138" lon="1.94782">
        <ele>46.8</ele>
        <time>2024-02-18T01:54:50Z</time>
      </trkpt>
      <trkpt lat="49.05179" lon="1.94745">
        <ele>48.1</ele>
        <time>2024-02-18T01:55:53Z</time>
      </trkpt>
      <trkpt lat="49.05206" lon="1.94706">
        <ele>49</ele>
        <time>2024-02-18T01:56:43Z</time>
      </trkpt>
      <trkpt lat="49.05227" lon="1.94668">
        <ele>48.8</ele>
        <time>2024-02-18T01:57:26Z</time>
      </trkpt>
      <trkpt lat="49.05364" lon="1.94384">
        <ele>48.2</ele>
        <time>2024-02-18T02:02:35Z</time>
      </trkpt>
      <trkpt lat="49.05403" lon="1.94153">
        <ele>49.3</ele>
        <time>2024-02-18T02:06:04Z</time>
      </trkpt>
      <trkpt lat="49.05444" lon="1.94016">
        <ele>48.6</ele>
        <time>2024-02-18T02:08:15Z</time>
      </trkpt>
      <trkpt lat="49.0549" lon="1.93906">
        <ele>48.9</ele>
        <time>2024-02-18T02:10:09Z</time>
      </trkpt>
      <trkpt lat="49.05574" lon="1.93725">
        <ele>49.9</ele>
        <time>2024-02-18T02:13:23Z</time>
      </trkpt>
      <trkpt lat="49.05727" lon="1.93539">
        <ele>51.7</ele>
        <time>2024-02-18T02:17:44Z</time>
      </trkpt>
      <trkpt lat="49.05873" lon="1.93431">
        <ele>52</ele>
        <time>2024-02-18T02:21:21Z</time>
      </trkpt>
      <trkpt lat="49.05965" lon="1.93398">
        <ele>52.5</ele>
        <time>2024-02-18T02:23:27Z</time>
      </trkpt>
      <trkpt lat="49.06016" lon="1.93406">
        <ele>52.6</ele>
        <time>2024-02-18T02:24:35Z</time>
      </trkpt>
      <trkpt lat="49.06097" lon="1.93434">
        <ele>55.9</ele>
        <time>2024-02-18T02:26:26Z</time>
      </trkpt>
      <trkpt lat="49.06099" lon="1.9342">
        <ele>54.4</ele>
        <time>2024-02-18T02:26:39Z</time>
      </trkpt>
      <trkpt lat="49.06107" lon="1.9341">
        <ele>53.3</ele>
        <time>2024-02-18T02:26:53Z</time>
      </trkpt>
      <trkpt lat="49.06119" lon="1.93404">
        <ele>52.9</ele>
        <time>2024-02-18T02:27:09Z</time>
      </trkpt>
      <trkpt lat="49.06137" lon="1.93401">
        <ele>53.2</ele>
        <time>2024-02-18T02:27:34Z</time>
      </trkpt>
      <trkpt lat="49.06164" lon="1.93404">
        <ele>53.1</ele>
        <time>2024-02-18T02:28:10Z</time>
      </trkpt>
      <trkpt lat="49.06242" lon="1.9343">
        <ele>54.9</ele>
        <time>2024-02-18T02:29:56Z</time>
      </trkpt>
      <trkpt lat="49.06315" lon="1.9346">
        <ele>55.8</ele>
        <time>2024-02-18T02:31:37Z</time>
      </trkpt>
      <trkpt lat="49.06335" lon="1.93462">
        <ele>56.3</ele>
        <time>2024-02-18T02:32:04Z</time>
      </trkpt>
      <trkpt lat="49.06364" lon="1.93442">
        <ele>55.9</ele>
        <time>2024-02-18T02:32:46Z</time>
      </trkpt>
      <trkpt lat="49.0637" lon="1.93433">
        <ele>55.6</ele>
        <time>2024-02-18T02:32:58Z</time>
      </trkpt>
      <trkpt lat="49.06395" lon="1.93439">
        <ele>56.6</ele>
        <time>2024-02-18T02:33:31Z</time>
      </trkpt>
      <trkpt lat="49.06412" lon="1.93435">
        <ele>58.1</ele>
        <time>2024-02-18T02:33:54Z</time>
      </trkpt>
      <trkpt lat="49.06425" lon="1.93424">
        <ele>58.9</ele>
        <time>2024-02-18T02:34:14Z</time>
      </trkpt>
      <trkpt lat="49.06441" lon="1.93397">
        <ele>60.4</ele>
        <time>2024-02-18T02:34:46Z</time>
      </trkpt>
      <trkpt lat="49.06455" lon="1.93389">
        <ele>60.4</ele>
        <time>2024-02-18T02:35:06Z</time>
      </trkpt>
      <trkpt lat="49.06491" lon="1.93402">
        <ele>64.7</ele>
        <time>2024-02-18T02:35:55Z</time>
      </trkpt>
      <trkpt lat="49.06667" lon="1.93345">
        <ele>77.6</ele>
        <time>2024-02-18T02:39:55Z</time>
      </trkpt>
      <trkpt lat="49.06729" lon="1.93287">
        <ele>84.2</ele>
        <time>2024-02-18T02:41:32Z</time>
      </trkpt>
      <trkpt lat="49.06785" lon="1.93191">
        <ele>88</ele>
        <time>2024-02-18T02:43:25Z</time>
      </trkpt>
      <trkpt lat="49.07074" lon="1.92882">
        <ele>72.4</ele>
        <time>2024-02-18T02:51:16Z</time>
      </trkpt>
      <trkpt lat="49.07338" lon="1.92566">
        <ele>70.2</ele>
        <time>2024-02-18T02:58:43Z</time>
      </trkpt>
      <trkpt lat="49.07512" lon="1.92631">
        <ele>67.6</ele>
        <time>2024-02-18T03:02:42Z</time>
      </trkpt>
      <trkpt lat="49.07575" lon="1.92668">
        <ele>67</ele>
        <time>2024-02-18T03:04:12Z</time>
      </trkpt>
      <trkpt lat="49.07709" lon="1.92735">
        <ele>67.8</ele>
        <time>2024-02-18T03:07:21Z</time>
      </trkpt>
      <trkpt lat="49.0773" lon="1.92758">
        <ele>69.1</ele>
        <time>2024-02-18T03:07:55Z</time>
      </trkpt>
      <trkpt lat="49.07751" lon="1.92656">
        <ele>68.6</ele>
        <time>2024-02-18T03:09:29Z</time>
      </trkpt>
      <trkpt lat="49.07794" lon="1.92539">
        <ele>69.4</ele>
        <time>2024-02-18T03:11:26Z</time>
      </trkpt>
      <trkpt lat="49.07818" lon="1.92429">
        <ele>71.9</ele>
        <time>2024-02-18T03:13:07Z</time>
      </trkpt>
      <trkpt lat="49.07831" lon="1.92317">
        <ele>73.4</ele>
        <time>2024-02-18T03:14:47Z</time>
      </trkpt>
      <trkpt lat="49.07843" lon="1.92253">
        <ele>73.8</ele>
        <time>2024-02-18T03:15:45Z</time>
      </trkpt>
      <trkpt lat="49.07917" lon="1.92284">
        <ele>80.3</ele>
        <time>2024-02-18T03:17:27Z</time>
      </trkpt>
      <trkpt lat="49.08092" lon="1.92311">
        <ele>101.9</ele>
        <time>2024-02-18T03:21:22Z</time>
      </trkpt>
      <trkpt lat="49.08104" lon="1.92228">
        <ele>103.2</ele>
        <time>2024-02-18T03:22:36Z</time>
      </trkpt>
      <trkpt lat="49.08119" lon="1.92218">
        <ele>104.7</ele>
        <time>2024-02-18T03:22:58Z</time>
      </trkpt>
      <trkpt lat="49.08144" lon="1.92048">
        <ele>99.9</ele>
        <time>2024-02-18T03:25:30Z</time>
      </trkpt>
      <trkpt lat="49.08152" lon="1.91965">
        <ele>98.8</ele>
        <time>2024-02-18T03:26:44Z</time>
      </trkpt>
      <trkpt lat="49.08214" lon="1.91855">
        <ele>97.7</ele>
        <time>2024-02-18T03:28:51Z</time>
      </trkpt>
      <trkpt lat="49.0824" lon="1.91817">
        <ele>95.7</ele>
        <time>2024-02-18T03:29:39Z</time>
      </trkpt>
      <trkpt lat="49.0828" lon="1.91776">
        <ele>94.2</ele>
        <time>2024-02-18T03:30:43Z</time>
      </trkpt>
      <trkpt lat="49.08401" lon="1.91959">
        <ele>118.4</ele>
        <time>2024-02-18T03:34:30Z</time>
      </trkpt>
      <trkpt lat="49.08545" lon="1.91622">
        <ele>113.7</ele>
        <time>2024-02-18T03:40:22Z</time>
      </trkpt>
      <trkpt lat="49.08597" lon="1.91446">
        <ele>115</ele>
        <time>2024-02-18T03:43:11Z</time>
      </trkpt>
      <trkpt lat="49.08624" lon="1.91303">
        <ele>117.8</ele>
        <time>2024-02-18T03:45:21Z</time>
      </trkpt>
      <trkpt lat="49.08732" lon="1.91084">
        <ele>120.1</ele>
        <time>2024-02-18T03:49:20Z</time>
      </trkpt>
      <trkpt lat="49.08769" lon="1.90874">
        <ele>121.2</ele>
        <time>2024-02-18T03:52:30Z</time>
      </trkpt>
      <trkpt lat="49.08803" lon="1.90734">
        <ele>121.1</ele>
        <time>2024-02-18T03:54:41Z</time>
      </trkpt>
      <trkpt lat="49.08822" lon="1.90698">
        <ele>121</ele>
        <time>2024-02-18T03:55:21Z</time>
      </trkpt>
      <trkpt lat="49.0886" lon="1.90492">
        <ele>115.5</ele>
        <time>2024-02-18T03:58:28Z</time>
      </trkpt>
      <trkpt lat="49.0887" lon="1.90384">
        <ele>115.6</ele>
        <time>2024-02-18T04:00:04Z</time>
      </trkpt>
      <trkpt lat="49.08835" lon="1.90256">
        <ele>107.4</ele>
        <time>2024-02-18T04:02:05Z</time>
      </trkpt>
      <trkpt lat="49.08823" lon="1.90139">
        <ele>101.5</ele>
        <time>2024-02-18T04:03:48Z</time>
      </trkpt>
      <trkpt lat="49.08828" lon="1.90036">
        <ele>95.1</ele>
        <time>2024-02-18T04:05:19Z</time>
      </trkpt>
      <trkpt lat="49.08847" lon="1.89973">
        <ele>91.6</ele>
        <time>2024-02-18T04:06:19Z</time>
      </trkpt>
      <trkpt lat="49.08881" lon="1.89912">
        <ele>88.9</ele>
        <time>2024-02-18T04:07:29Z</time>
      </trkpt>
      <trkpt lat="49.08887" lon="1.89878">
        <ele>86.1</ele>
        <time>2024-02-18T04:08:00Z</time>
      </trkpt>
      <trkpt lat="49.08865" lon="1.89847">
        <ele>83.1</ele>
        <time>2024-02-18T04:08:40Z</time>
      </trkpt>
      <trkpt lat="49.08866" lon="1.89825">
        <ele>82.4</ele>
        <time>2024-02-18T04:08:59Z</time>
      </trkpt>
      <trkpt lat="49.08835" lon="1.89727">
        <ele>79.8</ele>
        <time>2024-02-18T04:10:34Z</time>
      </trkpt>
      <trkpt lat="49.08807" lon="1.89667">
        <ele>81.1</ele>
        <time>2024-02-18T04:11:39Z</time>
      </trkpt>
      <trkpt lat="49.08741" lon="1.89589">
        <ele>82.6</ele>
        <time>2024-02-18T04:13:30Z</time>
      </trkpt>
      <trkpt lat="49.08674" lon="1.89539">
        <ele>81.9</ele>
        <time>2024-02-18T04:15:10Z</time>
      </trkpt>
      <trkpt lat="49.0867" lon="1.89569">
        <ele>80.7</ele>
        <time>2024-02-18T04:15:36Z</time>
      </trkpt>
      <trkpt lat="49.08654" lon="1.89566">
        <ele>80.3</ele>
        <time>2024-02-18T04:15:58Z</time>
      </trkpt>
      <trkpt lat="49.08651" lon="1.89577">
        <ele>80.1</ele>
        <time>2024-02-18T04:16:08Z</time>
      </trkpt>
      <trkpt lat="49.08615" lon="1.8957">
        <ele>78.7</ele>
        <time>2024-02-18T04:16:57Z</time>
      </trkpt>
      <trkpt lat="49.08608" lon="1.8959">
        <ele>78.6</ele>
        <time>2024-02-18T04:17:16Z</time>
      </trkpt>
      <trkpt lat="49.08595" lon="1.89599">
        <ele>77.9</ele>
        <time>2024-02-18T04:17:35Z</time>
      </trkpt>
      <trkpt lat="49.08568" lon="1.89599">
        <ele>77.7</ele>
        <time>2024-02-18T04:18:12Z</time>
      </trkpt>
      <trkpt lat="49.08546" lon="1.89596">
        <ele>78.3</ele>
        <time>2024-02-18T04:18:41Z</time>
      </trkpt>
      <trkpt lat="49.08513" lon="1.89576">
        <ele>79.3</ele>
        <time>2024-02-18T04:19:28Z</time>
      </trkpt>
      <trkpt lat="49.08503" lon="1.89537">
        <ele>80.9</ele>
        <time>2024-02-18T04:20:05Z</time>
      </trkpt>
      <trkpt lat="49.0849" lon="1.89529">
        <ele>81.3</ele>
        <time>2024-02-18T04:20:24Z</time>
      </trkpt>
      <trkpt lat="49.08524" lon="1.89402">
        <ele>81.6</ele>
        <time>2024-02-18T04:22:24Z</time>
      </trkpt>
      <trkpt lat="49.08553" lon="1.89267">
        <ele>82</ele>
        <time>2024-02-18T04:24:28Z</time>
      </trkpt>
      <trkpt lat="49.08585" lon="1.89173">
        <ele>82</ele>
        <time>2024-02-18T04:26:00Z</time>
      </trkpt>
      <trkpt lat="49.08647" lon="1.89039">
        <ele>82.6</ele>
        <time>2024-02-18T04:28:24Z</time>
      </trkpt>
      <trkpt lat="49.08677" lon="1.8891">
        <ele>85.2</ele>
        <time>2024-02-18T04:30:23Z</time>
      </trkpt>
    </trkseg>
  </trk>
</gpx>